createdAt,value
2019-03-25T00:02:01.093Z,5.70
2019-03-25T00:04:06.917Z,5.70
2019-03-25T00:06:13.114Z,5.60
2019-03-25T00:08:19.193Z,5.60
2019-03-25T00:10:25.413Z,5.60
2019-03-25T00:12:31.164Z,5.60
2019-03-25T00:14:37.510Z,5.60
2019-03-25T00:16:43.381Z,5.70
2019-03-25T00:18:49.370Z,5.70
2019-03-25T00:20:55.066Z,5.70
2019-03-25T00:23:01.398Z,5.70
2019-03-25T00:25:07.581Z,5.70
2019-03-25T00:27:13.590Z,5.70
2019-03-25T00:29:19.670Z,5.70
2019-03-25T00:31:26.002Z,5.70
2019-03-25T00:33:32.132Z,5.80
2019-03-25T00:35:37.903Z,5.80
2019-03-25T00:37:43.592Z,5.80
2019-03-25T00:39:49.589Z,5.80
2019-03-25T00:41:55.273Z,5.80
2019-03-25T00:44:01.653Z,5.80
2019-03-25T00:46:07.447Z,5.80
2019-03-25T00:48:14.597Z,5.80
2019-03-25T00:50:20.716Z,5.80
2019-03-25T00:52:26.807Z,5.80
2019-03-25T00:54:33.913Z,5.80
2019-03-25T00:56:40.229Z,5.80
2019-03-25T00:58:47.211Z,5.80
2019-03-25T01:00:53.775Z,5.90
2019-03-25T01:03:00.256Z,5.80
2019-03-25T01:05:08.351Z,5.90
2019-03-25T01:07:14.572Z,5.90
2019-03-25T01:09:20.411Z,5.90
2019-03-25T01:11:26.861Z,5.90
2019-03-25T01:13:33.123Z,5.90
2019-03-25T01:15:38.806Z,5.90
2019-03-25T01:17:44.453Z,5.90
2019-03-25T01:19:50.518Z,5.90
2019-03-25T01:21:56.435Z,5.90
2019-03-25T01:24:02.211Z,5.90
2019-03-25T01:26:08.813Z,5.90
2019-03-25T01:28:14.569Z,5.90
2019-03-25T01:30:20.505Z,5.90
2019-03-25T01:32:26.243Z,5.90
2019-03-25T01:34:32.334Z,5.90
2019-03-25T01:36:38.299Z,5.90
2019-03-25T01:38:44.722Z,5.90
2019-03-25T01:40:50.461Z,5.90
2019-03-25T01:42:56.508Z,5.90
2019-03-25T01:45:02.436Z,5.90
2019-03-25T01:47:08.284Z,5.90
2019-03-25T01:49:13.976Z,5.90
2019-03-25T01:51:19.974Z,6.00
2019-03-25T01:53:26.015Z,6.00
2019-03-25T01:55:31.687Z,6.00
2019-03-25T01:57:38.189Z,6.00
2019-03-25T01:59:45.889Z,6.00
2019-03-25T02:01:54.611Z,6.00
2019-03-25T02:04:03.908Z,6.00
2019-03-25T02:06:11.269Z,6.00
2019-03-25T02:08:16.950Z,6.00
2019-03-25T02:10:22.846Z,6.00
2019-03-25T02:12:29.698Z,6.10
2019-03-25T02:14:35.390Z,6.00
2019-03-25T02:16:41.867Z,6.10
2019-03-25T02:18:47.948Z,6.10
2019-03-25T02:20:54.443Z,6.10
2019-03-25T02:23:00.337Z,6.10
2019-03-25T02:25:06.896Z,6.10
2019-03-25T02:27:13.013Z,6.20
2019-03-25T02:29:19.695Z,6.20
2019-03-25T02:31:25.846Z,6.20
2019-03-25T02:33:31.859Z,6.30
2019-03-25T02:35:37.887Z,6.30
2019-03-25T02:37:44.923Z,6.30
2019-03-25T02:39:50.968Z,6.40
2019-03-25T02:41:56.729Z,6.40
2019-03-25T02:44:02.761Z,6.50
2019-03-25T02:46:08.891Z,6.50
2019-03-25T02:48:14.766Z,6.50
2019-03-25T02:50:21.148Z,6.60
2019-03-25T02:52:27.205Z,6.70
2019-03-25T02:54:33.398Z,6.70
2019-03-25T02:56:39.919Z,6.80
2019-03-25T02:58:46.871Z,6.80
2019-03-25T03:00:53.521Z,6.90
2019-03-25T03:02:59.199Z,6.90
2019-03-25T03:05:06.070Z,7.00
2019-03-25T03:07:12.086Z,7.00
2019-03-25T03:09:18.555Z,7.10
2019-03-25T03:11:24.965Z,7.10
2019-03-25T03:13:30.740Z,7.20
2019-03-25T03:15:37.403Z,7.20
2019-03-25T03:17:43.504Z,7.30
2019-03-25T03:19:49.520Z,7.30
2019-03-25T03:21:55.622Z,7.40
2019-03-25T03:24:02.634Z,7.40
2019-03-25T03:26:08.688Z,7.40
2019-03-25T03:28:15.041Z,7.50
2019-03-25T03:30:20.985Z,7.50
2019-03-25T03:32:26.730Z,7.50
2019-03-25T03:34:32.879Z,7.60
2019-03-25T03:36:39.256Z,7.60
2019-03-25T03:38:45.040Z,7.60
2019-03-25T03:40:51.528Z,7.70
2019-03-25T03:42:57.761Z,7.70
2019-03-25T03:45:03.969Z,7.70
2019-03-25T03:47:10.039Z,7.70
2019-03-25T03:49:15.877Z,7.80
2019-03-25T03:51:22.099Z,7.80
2019-03-25T03:53:28.949Z,7.80
2019-03-25T03:55:37.371Z,7.90
2019-03-25T03:57:43.821Z,7.90
2019-03-25T03:59:50.711Z,7.90
2019-03-25T04:01:57.646Z,7.90
2019-03-25T04:04:03.520Z,8.00
2019-03-25T04:06:09.655Z,8.00
2019-03-25T04:08:16.655Z,8.00
2019-03-25T04:10:23.115Z,8.00
2019-03-25T04:12:29.217Z,8.00
2019-03-25T04:14:35.318Z,8.10
2019-03-25T04:16:41.394Z,8.10
2019-03-25T04:18:47.543Z,8.10
2019-03-25T04:20:53.591Z,8.10
2019-03-25T04:23:00.171Z,8.10
2019-03-25T04:25:06.685Z,8.10
2019-03-25T04:27:13.399Z,8.20
2019-03-25T04:29:19.843Z,8.20
2019-03-25T04:31:25.619Z,8.20
2019-03-25T04:33:31.361Z,8.20
2019-03-25T04:35:37.339Z,8.30
2019-03-25T04:37:43.382Z,8.20
2019-03-25T04:39:49.077Z,8.30
2019-03-25T04:41:55.145Z,8.40
2019-03-25T04:44:01.065Z,8.40
2019-03-25T04:46:06.981Z,8.40
2019-03-25T04:48:13.403Z,8.40
2019-03-25T04:50:20.538Z,8.40
2019-03-25T04:52:26.247Z,8.50
2019-03-25T04:54:32.859Z,8.50
2019-03-25T04:56:40.118Z,8.50
2019-03-25T04:58:46.357Z,8.60
2019-03-25T05:00:52.020Z,8.50
2019-03-25T05:02:58.363Z,8.60
2019-03-25T05:05:04.140Z,8.60
2019-03-25T05:07:09.885Z,8.60
2019-03-25T05:09:15.839Z,8.60
2019-03-25T05:11:30.314Z,8.70
2019-03-25T05:13:29.598Z,8.70
2019-03-25T05:15:35.814Z,8.70
2019-03-25T05:17:41.856Z,8.70
2019-03-25T05:19:47.861Z,8.70
2019-03-25T05:21:54.097Z,8.80
2019-03-25T05:24:00.094Z,8.70
2019-03-25T05:26:06.255Z,8.70
2019-03-25T05:28:12.234Z,8.70
2019-03-25T05:30:18.665Z,8.70
2019-03-25T05:32:25.543Z,8.70
2019-03-25T05:34:31.203Z,8.70
2019-03-25T05:36:37.199Z,8.60
2019-03-25T05:38:43.239Z,8.60
2019-03-25T05:40:48.954Z,8.60
2019-03-25T05:42:55.014Z,8.60
2019-03-25T05:45:01.038Z,8.60
2019-03-25T05:47:07.036Z,8.50
2019-03-25T05:49:13.006Z,8.50
2019-03-25T05:51:18.895Z,8.50
2019-03-25T05:53:24.923Z,8.50
2019-03-25T05:55:31.120Z,8.50
2019-03-25T05:57:36.946Z,8.50
2019-03-25T05:59:43.299Z,8.50
2019-03-25T06:01:49.241Z,8.50
2019-03-25T06:03:55.212Z,8.50
2019-03-25T06:06:01.192Z,8.50
2019-03-25T06:08:06.869Z,8.40
2019-03-25T06:10:15.642Z,8.40
2019-03-25T06:12:21.306Z,8.40
2019-03-25T06:14:27.518Z,8.40
2019-03-25T06:16:33.594Z,8.40
2019-03-25T06:18:39.959Z,8.30
2019-03-25T06:20:45.668Z,8.40
2019-03-25T06:22:51.669Z,8.30
2019-03-25T06:24:57.473Z,8.30
2019-03-25T06:27:13.723Z,8.30
2019-03-25T06:29:11.023Z,8.30
2019-03-25T06:31:16.730Z,8.30
2019-03-25T06:33:23.008Z,8.20
2019-03-25T06:35:28.994Z,8.20
2019-03-25T06:37:34.974Z,8.20
2019-03-25T06:39:41.321Z,8.20
2019-03-25T06:41:47.513Z,8.20
2019-03-25T06:43:53.599Z,8.20
2019-03-25T06:45:59.581Z,8.20
2019-03-25T06:48:05.449Z,8.20
2019-03-25T06:50:12.021Z,8.20
2019-03-25T06:52:18.388Z,8.30
2019-03-25T06:54:24.448Z,8.30
2019-03-25T06:56:30.542Z,8.30
2019-03-25T06:58:36.873Z,8.30
2019-03-25T07:00:42.996Z,8.30
2019-03-25T07:02:48.661Z,8.30
2019-03-25T07:04:55.197Z,8.30
2019-03-25T07:07:01.230Z,8.30
2019-03-25T07:09:08.934Z,8.30
2019-03-25T07:11:15.013Z,8.30
2019-03-25T07:13:21.630Z,8.30
2019-03-25T07:15:30.401Z,8.30
2019-03-25T07:17:36.339Z,8.30
2019-03-25T07:19:42.394Z,8.40
2019-03-25T07:21:48.479Z,8.40
2019-03-25T07:23:54.938Z,8.40
2019-03-25T07:26:02.143Z,8.40
2019-03-25T07:28:08.601Z,8.50
2019-03-25T07:30:14.798Z,8.50
2019-03-25T07:32:20.630Z,8.60
2019-03-25T07:34:27.460Z,8.60
2019-03-25T07:36:33.620Z,8.60
2019-03-25T07:38:39.914Z,8.70
2019-03-25T07:40:45.724Z,8.70
2019-03-25T07:42:51.555Z,8.70
2019-03-25T07:44:58.210Z,8.80
2019-03-25T07:47:04.318Z,8.80
2019-03-25T07:49:11.011Z,8.80
2019-03-25T07:51:16.977Z,8.90
2019-03-25T07:53:22.722Z,8.90
2019-03-25T07:55:28.815Z,9.00
2019-03-25T07:57:34.534Z,9.00
2019-03-25T07:59:40.585Z,9.00
2019-03-25T08:01:46.432Z,9.00
2019-03-25T08:03:52.502Z,9.10
2019-03-25T08:05:58.180Z,9.10
2019-03-25T08:08:04.035Z,9.10
2019-03-25T08:10:10.505Z,9.10
2019-03-25T08:12:16.506Z,9.20
2019-03-25T08:14:22.558Z,9.20
2019-03-25T08:16:28.640Z,9.30
2019-03-25T08:18:35.329Z,9.30
2019-03-25T08:20:41.404Z,9.30
2019-03-25T08:22:47.378Z,9.40
2019-03-25T08:24:53.543Z,9.40
2019-03-25T08:26:59.536Z,9.40
2019-03-25T08:29:05.399Z,9.50
2019-03-25T08:31:11.958Z,9.50
2019-03-25T08:33:17.893Z,9.50
2019-03-25T08:35:23.671Z,9.50
2019-03-25T08:37:29.684Z,9.50
2019-03-25T08:39:35.661Z,9.50
2019-03-25T08:41:41.937Z,9.50
2019-03-25T08:43:50.308Z,9.50
2019-03-25T08:45:55.856Z,9.50
2019-03-25T08:48:01.683Z,9.60
2019-03-25T08:50:09.262Z,9.60
2019-03-25T08:52:15.245Z,9.60
2019-03-25T08:54:21.194Z,9.60
2019-03-25T08:56:27.163Z,9.60
2019-03-25T08:58:33.291Z,9.60
2019-03-25T09:00:39.363Z,9.60
2019-03-25T09:02:45.199Z,9.70
2019-03-25T09:04:52.409Z,9.70
2019-03-25T09:06:58.424Z,9.70
2019-03-25T09:09:07.778Z,9.70
2019-03-25T09:11:13.468Z,9.70
2019-03-25T09:13:19.738Z,9.70
2019-03-25T09:15:26.086Z,9.70
2019-03-25T09:17:32.570Z,9.70
2019-03-25T09:19:38.549Z,9.70
2019-03-25T09:21:44.512Z,9.60
2019-03-25T09:23:50.180Z,9.60
2019-03-25T09:25:56.233Z,9.60
2019-03-25T09:28:02.379Z,9.60
2019-03-25T09:30:10.477Z,9.60
2019-03-25T09:32:16.986Z,9.60
2019-03-25T09:34:22.979Z,9.60
2019-03-25T09:36:28.724Z,9.50
2019-03-25T09:38:34.755Z,9.50
2019-03-25T09:40:40.517Z,9.60
2019-03-25T09:42:46.801Z,9.60
2019-03-25T09:44:52.569Z,9.60
2019-03-25T09:46:58.638Z,9.70
2019-03-25T09:49:04.819Z,9.80
2019-03-25T09:51:11.335Z,9.90
2019-03-25T09:53:17.310Z,10.00
2019-03-25T09:55:23.051Z,10.00
2019-03-25T09:57:28.859Z,10.10
2019-03-25T09:59:35.043Z,10.10
2019-03-25T10:01:40.868Z,10.20
2019-03-25T10:03:46.952Z,10.20
2019-03-25T10:05:52.849Z,10.30
2019-03-25T10:07:58.786Z,10.30
2019-03-25T10:10:06.008Z,10.40
2019-03-25T10:12:12.139Z,10.50
2019-03-25T10:14:18.760Z,10.50
2019-03-25T10:16:24.528Z,10.60
2019-03-25T10:18:30.393Z,10.60
2019-03-25T10:20:36.153Z,10.70
2019-03-25T10:22:42.002Z,10.70
2019-03-25T10:24:48.063Z,10.80
2019-03-25T10:26:53.751Z,10.80
2019-03-25T10:28:59.715Z,10.80
2019-03-25T10:31:05.842Z,10.80
2019-03-25T10:33:11.778Z,10.90
2019-03-25T10:35:18.517Z,10.90
2019-03-25T10:37:25.222Z,10.90
2019-03-25T10:39:31.196Z,10.90
2019-03-25T10:41:38.452Z,10.90
2019-03-25T10:43:44.769Z,10.90
2019-03-25T10:45:51.481Z,10.90
2019-03-25T10:47:57.444Z,10.90
2019-03-25T10:50:03.620Z,10.90
2019-03-25T10:52:09.714Z,10.90
2019-03-25T10:54:15.398Z,10.90
2019-03-25T10:56:22.096Z,10.90
2019-03-25T10:58:27.839Z,10.90
2019-03-25T11:00:34.078Z,10.90
2019-03-25T11:02:39.833Z,10.90
2019-03-25T11:04:46.769Z,10.80
2019-03-25T11:06:52.561Z,10.80
2019-03-25T11:08:58.549Z,10.80
2019-03-25T11:11:06.299Z,10.70
2019-03-25T11:13:12.688Z,10.70
2019-03-25T11:15:19.077Z,10.70
2019-03-25T11:17:24.884Z,10.70
2019-03-25T11:19:30.767Z,10.70
2019-03-25T11:21:36.545Z,10.80
2019-03-25T11:23:42.946Z,10.90
2019-03-25T11:25:49.064Z,11.00
2019-03-25T11:27:55.257Z,11.00
2019-03-25T11:30:01.936Z,11.20
2019-03-25T11:32:07.834Z,11.30
2019-03-25T11:34:13.850Z,11.40
2019-03-25T11:36:22.619Z,11.40
2019-03-25T11:38:28.671Z,11.50
2019-03-25T11:40:34.353Z,11.60
2019-03-25T11:42:40.252Z,11.60
2019-03-25T11:44:46.343Z,11.60
2019-03-25T11:46:52.086Z,11.70
2019-03-25T11:48:58.083Z,11.70
2019-03-25T11:51:05.052Z,11.70
2019-03-25T11:53:11.058Z,11.70
2019-03-25T11:55:17.870Z,11.70
2019-03-25T11:57:23.579Z,11.60
2019-03-25T11:59:30.582Z,11.60
2019-03-25T12:01:36.797Z,11.60
2019-03-25T12:03:42.472Z,11.50
2019-03-25T12:05:49.276Z,11.50
2019-03-25T12:07:55.044Z,11.60
2019-03-25T12:10:02.034Z,11.60
2019-03-25T12:12:07.711Z,11.60
2019-03-25T12:14:14.144Z,11.60
2019-03-25T12:16:20.077Z,11.60
2019-03-25T12:18:26.557Z,11.70
2019-03-25T12:20:33.098Z,11.70
2019-03-25T12:22:39.803Z,11.80
2019-03-25T12:24:45.795Z,11.80
2019-03-25T12:26:51.540Z,11.90
2019-03-25T12:28:57.854Z,12.00
2019-03-25T12:31:04.009Z,12.10
2019-03-25T12:33:09.934Z,12.20
2019-03-25T12:35:16.259Z,12.30
2019-03-25T12:37:22.322Z,12.40
2019-03-25T12:39:28.738Z,12.40
2019-03-25T12:41:34.673Z,12.60
2019-03-25T12:43:40.721Z,12.70
2019-03-25T12:45:46.903Z,12.70
2019-03-25T12:47:53.728Z,12.80
2019-03-25T12:49:59.792Z,12.80
2019-03-25T12:52:05.926Z,12.80
2019-03-25T12:54:11.699Z,12.90
2019-03-25T12:56:17.913Z,12.90
2019-03-25T12:58:23.672Z,12.80
2019-03-25T13:00:39.043Z,12.80
2019-03-25T13:02:45.140Z,12.80
2019-03-25T13:04:50.912Z,12.80
2019-03-25T13:06:56.593Z,12.80
2019-03-25T13:09:02.381Z,12.80
2019-03-25T13:11:08.199Z,12.90
2019-03-25T13:13:15.076Z,12.90
2019-03-25T13:15:20.845Z,12.90
2019-03-25T13:17:26.679Z,13.00
2019-03-25T13:19:32.803Z,13.00
2019-03-25T13:21:39.106Z,13.00
2019-03-25T13:23:45.089Z,13.00
2019-03-25T13:25:51.699Z,13.10
2019-03-25T13:27:57.665Z,13.10
2019-03-25T13:30:04.138Z,13.10
2019-03-25T13:32:10.496Z,13.10
2019-03-25T13:34:16.833Z,13.10
2019-03-25T13:36:22.835Z,13.10
2019-03-25T13:38:28.931Z,13.10
2019-03-25T13:40:34.701Z,13.10
2019-03-25T13:42:41.082Z,13.00
2019-03-25T13:44:47.165Z,13.10
2019-03-25T13:46:53.642Z,13.00
2019-03-25T13:49:00.009Z,13.00
2019-03-25T13:51:06.400Z,13.00
2019-03-25T13:53:12.360Z,12.90
2019-03-25T13:55:18.149Z,12.90
2019-03-25T13:57:23.836Z,12.80
2019-03-25T13:59:30.123Z,12.70
2019-03-25T14:01:36.077Z,12.80
2019-03-25T14:03:43.054Z,12.80
2019-03-25T14:05:48.739Z,12.70
2019-03-25T14:07:54.867Z,12.70
2019-03-25T14:10:01.163Z,12.70
2019-03-25T14:12:07.632Z,12.70
2019-03-25T14:14:13.734Z,12.60
2019-03-25T14:16:19.767Z,12.60
2019-03-25T14:18:26.189Z,12.70
2019-03-25T14:20:32.425Z,12.50
2019-03-25T14:22:38.679Z,12.50
2019-03-25T14:24:44.743Z,12.50
2019-03-25T14:26:51.069Z,12.50
2019-03-25T14:28:57.263Z,12.50
2019-03-25T14:31:03.881Z,12.50
2019-03-25T14:33:09.931Z,12.40
2019-03-25T14:35:15.798Z,12.40
2019-03-25T14:37:22.351Z,12.40
2019-03-25T14:39:28.150Z,12.40
2019-03-25T14:41:33.841Z,12.40
2019-03-25T14:43:40.007Z,12.50
2019-03-25T14:45:46.180Z,12.40
2019-03-25T14:47:52.980Z,12.50
2019-03-25T14:49:59.187Z,12.50
2019-03-25T14:52:05.313Z,12.40
2019-03-25T14:54:11.593Z,12.50
2019-03-25T14:56:17.879Z,12.50
2019-03-25T14:58:24.195Z,12.50
2019-03-25T15:00:30.391Z,12.50
2019-03-25T15:02:37.320Z,12.40
2019-03-25T15:04:43.387Z,12.40
2019-03-25T15:06:49.140Z,12.40
2019-03-25T15:08:56.012Z,12.50
2019-03-25T15:11:01.683Z,12.40
2019-03-25T15:13:08.316Z,12.50
2019-03-25T15:15:14.727Z,12.40
2019-03-25T15:17:20.776Z,12.40
2019-03-25T15:19:27.041Z,12.50
2019-03-25T15:21:32.955Z,12.40
2019-03-25T15:23:39.365Z,12.40
2019-03-25T15:25:45.286Z,12.40
2019-03-25T15:27:51.361Z,12.30
2019-03-25T15:29:57.441Z,12.30
2019-03-25T15:32:03.810Z,12.20
2019-03-25T15:34:09.578Z,12.10
2019-03-25T15:36:15.914Z,12.10
2019-03-25T15:38:21.867Z,11.90
2019-03-25T15:40:27.692Z,11.90
2019-03-25T15:42:34.011Z,11.80
2019-03-25T15:44:39.785Z,11.70
2019-03-25T15:46:55.406Z,11.60
2019-03-25T15:48:53.038Z,11.60
2019-03-25T15:50:59.085Z,11.50
2019-03-25T15:53:05.659Z,11.50
2019-03-25T15:55:13.301Z,11.50
2019-03-25T15:57:20.359Z,11.40
2019-03-25T15:59:26.468Z,11.40
2019-03-25T16:01:32.817Z,11.40
2019-03-25T16:03:39.097Z,11.40
2019-03-25T16:05:45.741Z,11.40
2019-03-25T16:07:52.141Z,11.40
2019-03-25T16:09:57.832Z,11.30
2019-03-25T16:12:05.052Z,11.30
2019-03-25T16:14:11.154Z,11.40
2019-03-25T16:16:19.617Z,11.40
2019-03-25T16:18:40.451Z,11.30
2019-03-25T16:20:46.239Z,11.30
2019-03-25T16:22:53.243Z,11.30
2019-03-25T16:25:00.381Z,11.30
2019-03-25T16:27:06.318Z,11.30
2019-03-25T16:29:12.973Z,11.30
2019-03-25T16:31:18.965Z,11.30
2019-03-25T16:33:25.519Z,11.30
2019-03-25T16:35:31.493Z,11.30
2019-03-25T16:37:37.241Z,11.30
2019-03-25T16:39:43.187Z,11.30
2019-03-25T16:41:49.925Z,11.30
2019-03-25T16:43:55.609Z,11.30
2019-03-25T16:46:01.674Z,11.30
2019-03-25T16:48:07.415Z,11.30
2019-03-25T16:50:13.883Z,11.30
2019-03-25T16:52:20.043Z,11.30
2019-03-25T16:54:25.740Z,11.30
2019-03-25T16:56:31.510Z,11.30
2019-03-25T16:58:38.257Z,11.20
2019-03-25T17:00:43.951Z,11.30
2019-03-25T17:02:50.185Z,11.20
2019-03-25T17:04:56.028Z,11.20
2019-03-25T17:07:02.186Z,11.20
2019-03-25T17:09:08.919Z,11.20
2019-03-25T17:11:14.981Z,11.20
2019-03-25T17:13:22.367Z,11.20
2019-03-25T17:15:29.911Z,11.20
2019-03-25T17:17:35.950Z,11.20
2019-03-25T17:19:43.729Z,11.10
2019-03-25T17:21:58.038Z,11.20
2019-03-25T17:23:58.889Z,11.10
2019-03-25T17:26:04.959Z,11.10
2019-03-25T17:28:11.663Z,11.10
2019-03-25T17:30:18.288Z,11.10
2019-03-25T17:32:25.194Z,11.10
2019-03-25T17:34:31.215Z,11.10
2019-03-25T17:36:36.979Z,11.10
2019-03-25T17:38:43.334Z,11.10
2019-03-25T17:40:49.117Z,11.10
2019-03-25T17:42:55.102Z,11.10
2019-03-25T17:45:00.797Z,11.10
2019-03-25T17:47:06.685Z,11.10
2019-03-25T17:49:12.474Z,11.10
2019-03-25T17:51:18.291Z,11.10
2019-03-25T17:53:24.332Z,11.10
2019-03-25T17:55:30.026Z,11.10
2019-03-25T17:57:36.167Z,11.10
2019-03-25T17:59:42.259Z,11.00
2019-03-25T18:01:49.861Z,11.00
2019-03-25T18:03:55.950Z,11.00
2019-03-25T18:06:01.960Z,11.00
2019-03-25T18:08:08.097Z,11.00
2019-03-25T18:10:13.949Z,10.90
2019-03-25T18:12:20.031Z,10.90
2019-03-25T18:14:26.687Z,10.90
2019-03-25T18:16:33.099Z,10.90
2019-03-25T18:18:39.208Z,10.90
2019-03-25T18:20:45.553Z,10.80
2019-03-25T18:22:51.558Z,10.80
2019-03-25T18:24:57.245Z,10.80
2019-03-25T18:27:03.492Z,10.70
2019-03-25T18:29:09.565Z,10.70
2019-03-25T18:31:15.936Z,10.70
2019-03-25T18:33:22.293Z,10.70
2019-03-25T18:35:28.207Z,10.70
2019-03-25T18:37:34.560Z,10.70
2019-03-25T18:39:40.872Z,10.70
2019-03-25T18:41:46.620Z,10.60
2019-03-25T18:43:53.214Z,10.60
2019-03-25T18:45:59.293Z,10.60
2019-03-25T18:48:05.833Z,10.60
2019-03-25T18:50:11.892Z,10.60
2019-03-25T18:52:18.290Z,10.60
2019-03-25T18:54:24.399Z,10.60
2019-03-25T18:56:30.299Z,10.50
2019-03-25T18:58:37.039Z,10.50
2019-03-25T19:00:42.716Z,10.50
2019-03-25T19:02:48.594Z,10.50
2019-03-25T19:04:54.427Z,10.50
2019-03-25T19:07:01.427Z,10.50
2019-03-25T19:09:10.671Z,10.50
2019-03-25T19:11:16.493Z,10.40
2019-03-25T19:13:22.274Z,10.40
2019-03-25T19:15:28.563Z,10.40
2019-03-25T19:17:34.328Z,10.30
2019-03-25T19:19:41.101Z,10.30
2019-03-25T19:21:46.790Z,10.40
2019-03-25T19:23:53.115Z,10.30
2019-03-25T19:26:00.361Z,10.30
2019-03-25T19:28:06.577Z,10.30
2019-03-25T19:30:14.268Z,10.30
2019-03-25T19:32:20.222Z,10.20
2019-03-25T19:34:25.916Z,10.20
2019-03-25T19:36:32.327Z,10.20
2019-03-25T19:38:39.247Z,10.20
2019-03-25T19:40:45.464Z,10.20
2019-03-25T19:42:51.199Z,10.20
2019-03-25T19:44:57.250Z,10.20
2019-03-25T19:47:03.362Z,10.20
2019-03-25T19:49:09.114Z,10.10
2019-03-25T19:51:14.922Z,10.10
2019-03-25T19:53:24.832Z,10.00
2019-03-25T19:55:31.582Z,10.10
2019-03-25T19:57:38.335Z,10.10
2019-03-25T19:59:45.461Z,10.20
2019-03-25T20:01:51.498Z,10.20
2019-03-25T20:03:57.822Z,10.20
2019-03-25T20:06:03.886Z,10.10
2019-03-25T20:08:09.912Z,10.10
2019-03-25T20:10:32.264Z,10.10
2019-03-25T20:12:38.716Z,10.10
2019-03-25T20:14:44.477Z,10.10
2019-03-25T20:16:50.609Z,10.10
2019-03-25T20:18:57.395Z,10.10
2019-03-25T20:21:03.594Z,10.10
2019-03-25T20:23:09.976Z,10.10
2019-03-25T20:25:16.188Z,10.10
2019-03-25T20:27:22.515Z,10.10
2019-03-25T20:29:28.803Z,10.00
2019-03-25T20:31:34.936Z,10.10
2019-03-25T20:33:41.364Z,10.10
2019-03-25T20:35:47.415Z,10.10
2019-03-25T20:37:53.811Z,10.00
2019-03-25T20:40:00.791Z,10.00
2019-03-25T20:42:07.526Z,10.10
2019-03-25T20:44:13.957Z,10.10
2019-03-25T20:46:20.417Z,10.00
2019-03-25T20:48:26.436Z,10.10
2019-03-25T20:50:33.084Z,10.00
2019-03-25T20:52:39.487Z,10.10
2019-03-25T20:54:46.402Z,10.00
2019-03-25T20:56:53.208Z,10.00
2019-03-25T20:58:59.053Z,10.00
2019-03-25T21:01:05.217Z,10.00
2019-03-25T21:03:11.027Z,9.90
2019-03-25T21:05:17.225Z,9.90
2019-03-25T21:07:22.930Z,9.90
2019-03-25T21:09:28.977Z,10.00
2019-03-25T21:11:34.782Z,10.00
2019-03-25T21:13:40.807Z,10.00
2019-03-25T21:15:47.315Z,10.00
2019-03-25T21:17:53.113Z,10.00
2019-03-25T21:19:59.672Z,10.00
2019-03-25T21:22:05.801Z,10.00
2019-03-25T21:24:11.822Z,10.00
2019-03-25T21:26:17.815Z,10.00
2019-03-25T21:28:24.001Z,10.00
2019-03-25T21:30:30.467Z,10.00
2019-03-25T21:32:36.165Z,10.00
2019-03-25T21:34:41.861Z,10.00
2019-03-25T21:36:47.845Z,10.00
2019-03-25T21:38:53.752Z,10.00
2019-03-25T21:40:59.485Z,10.00
2019-03-25T21:43:05.443Z,10.00
2019-03-25T21:45:11.874Z,10.00
2019-03-25T21:47:17.625Z,10.00
2019-03-25T21:49:23.783Z,10.00
2019-03-25T21:51:30.086Z,10.00
2019-03-25T21:53:35.864Z,9.90
2019-03-25T21:55:41.774Z,10.00
2019-03-25T21:57:47.844Z,9.90
2019-03-25T21:59:54.022Z,9.90
2019-03-25T22:02:00.299Z,9.90
2019-03-25T22:04:07.641Z,9.90
2019-03-25T22:06:13.930Z,9.90
2019-03-25T22:08:19.663Z,9.90
2019-03-25T22:10:25.659Z,9.90
2019-03-25T22:12:31.861Z,9.90
2019-03-25T22:14:37.558Z,9.90
2019-03-25T22:16:43.327Z,9.90
2019-03-25T22:18:49.644Z,9.90
2019-03-25T22:20:55.331Z,9.90
2019-03-25T22:23:02.250Z,9.90
2019-03-25T22:25:09.519Z,9.90
2019-03-25T22:27:15.822Z,9.90
2019-03-25T22:29:21.847Z,9.90
2019-03-25T22:31:27.889Z,9.90
2019-03-25T22:33:33.586Z,9.90
2019-03-25T22:35:40.007Z,9.90
2019-03-25T22:37:46.184Z,9.80
2019-03-25T22:39:51.926Z,9.90
2019-03-25T22:41:58.208Z,9.90
2019-03-25T22:44:03.967Z,9.90
2019-03-25T22:46:10.059Z,9.80
2019-03-25T22:48:15.870Z,9.80
2019-03-25T22:50:30.281Z,9.80
2019-03-25T22:52:36.765Z,9.80
2019-03-25T22:54:43.172Z,9.80
2019-03-25T22:56:48.854Z,9.80
2019-03-25T22:58:54.867Z,9.80
2019-03-25T23:01:02.495Z,9.80
2019-03-25T23:03:08.901Z,9.80
2019-03-25T23:05:14.993Z,9.90
2019-03-25T23:07:21.943Z,9.80
2019-03-25T23:09:28.343Z,9.80
2019-03-25T23:11:34.293Z,9.80
2019-03-25T23:13:40.376Z,9.80
2019-03-25T23:15:46.047Z,9.80
2019-03-25T23:17:51.730Z,9.80
2019-03-25T23:19:57.428Z,9.80
2019-03-25T23:22:03.639Z,9.80
2019-03-25T23:24:09.747Z,9.80
2019-03-25T23:26:15.439Z,9.80
2019-03-25T23:28:22.062Z,9.80
2019-03-25T23:30:28.398Z,9.80
2019-03-25T23:32:34.519Z,9.80
2019-03-25T23:34:42.958Z,9.80
2019-03-25T23:36:48.630Z,9.80
2019-03-25T23:38:54.443Z,9.70
2019-03-25T23:41:00.794Z,9.70
2019-03-25T23:43:07.050Z,9.70
2019-03-25T23:45:14.254Z,9.70
2019-03-25T23:47:20.718Z,9.70
2019-03-25T23:49:26.494Z,9.70
2019-03-25T23:51:33.241Z,9.70
2019-03-25T23:53:39.535Z,9.80
2019-03-25T23:55:45.890Z,9.70
2019-03-25T23:57:51.851Z,9.70
2019-03-25T23:59:58.104Z,9.70
